Time;durP1;ratioP1;P1;durP2;ratioP2;P2;SDS_P1;SDS_P2;PMS_P1;PMS_P2;Temp;Humidity;BMP_temperature;BMP_pressure;BME280_temperature;BME280_humidity;BME280_pressure;Samples;Min_cycle;Max_cycle;Signal;HPM_P1;HPM_P2
2022/06/01 00:00:45;;;;;;;3.00;2.70;;;12.90;99.90;;;;;;5096075;28;20643;-89
2022/06/01 00:03:12;;;;;;;2.77;2.57;;;12.80;99.90;;;;;;5092836;28;20692;-90
2022/06/01 00:05:41;;;;;;;2.60;2.40;;;12.70;99.90;;;;;;5087910;28;20660;-90
2022/06/01 00:08:08;;;;;;;2.93;2.73;;;12.70;99.90;;;;;;5093350;28;20628;-89
2022/06/01 00:10:35;;;;;;;3.30;2.80;;;12.70;99.90;;;;;;5093097;28;20644;-90
2022/06/01 00:13:02;;;;;;;2.77;2.40;;;12.70;99.90;;;;;;5089880;28;20695;-89
2022/06/01 00:15:30;;;;;;;5.67;2.90;;;12.60;99.90;;;;;;5100256;28;20616;-88
2022/06/01 00:17:58;;;;;;;4.70;2.90;;;12.60;99.90;;;;;;5098301;28;20647;-89
2022/06/01 00:20:26;;;;;;;3.10;2.90;;;12.60;99.90;;;;;;5096314;28;20691;-88
2022/06/01 00:22:54;;;;;;;3.10;2.80;;;12.60;99.90;;;;;;5088111;28;20631;-88
2022/06/01 00:25:21;;;;;;;2.57;2.37;;;12.60;99.90;;;;;;5092518;28;20664;-89
2022/06/01 00:27:48;;;;;;;5.03;2.73;;;12.50;99.90;;;;;;5090722;28;20608;-88
2022/06/01 00:30:17;;;;;;;5.63;2.90;;;12.50;99.90;;;;;;5094180;28;21425;-87
2022/06/01 00:32:45;;;;;;;3.20;3.00;;;12.40;99.90;;;;;;5099822;28;20962;-86
2022/06/01 00:35:15;;;;;;;5.37;2.90;;;12.50;99.90;;;;;;5093338;28;20623;-88
2022/06/01 00:37:42;;;;;;;6.27;3.40;;;12.20;99.90;;;;;;5090751;28;20632;-88
2022/06/01 00:40:13;;;;;;;2.70;2.50;;;12.30;99.90;;;;;;5094214;28;20820;-88
2022/06/01 00:42:41;;;;;;;4.50;3.00;;;12.20;99.90;;;;;;5092886;28;20639;-87
2022/06/01 00:45:11;;;;;;;3.20;2.90;;;12.20;99.90;;;;;;5093471;28;20659;-87
2022/06/01 00:47:38;;;;;;;3.00;2.63;;;12.20;99.90;;;;;;5091926;28;20623;-87
2022/06/01 00:50:15;;;;;;;3.70;2.77;;;12.20;99.90;;;;;;5094990;28;20663;-86
2022/06/01 00:52:47;;;;;;;5.07;2.83;;;12.30;99.90;;;;;;5089355;28;21051;-86
2022/06/01 00:55:17;;;;;;;5.23;2.80;;;12.00;99.90;;;;;;5084363;28;20711;-87
2022/06/01 00:57:47;;;;;;;3.50;2.70;;;12.30;99.90;;;;;;5092207;28;21407;-87
2022/06/01 01:00:20;;;;;;;3.17;2.70;;;12.20;99.90;;;;;;5091202;28;20635;-87
2022/06/01 01:02:48;;;;;;;3.00;2.60;;;12.30;99.90;;;;;;5088265;28;20689;-87
2022/06/01 01:05:17;;;;;;;2.73;2.50;;;12.00;99.90;;;;;;5093285;28;20667;-87
2022/06/01 01:07:45;;;;;;;3.40;3.10;;;12.20;99.90;;;;;;5090809;28;20713;-87
2022/06/01 01:10:15;;;;;;;3.13;2.73;;;12.20;99.90;;;;;;5090964;28;20644;-87
2022/06/01 01:12:59;;;;;;;3.00;2.80;;;12.10;99.90;;;;;;5087544;28;20609;-88
2022/06/01 01:15:30;;;;;;;2.97;2.77;;;12.10;99.90;;;;;;5091073;28;20689;-88
2022/06/01 01:17:57;;;;;;;2.70;2.50;;;12.10;99.90;;;;;;5087545;28;20639;-88
2022/06/01 01:20:26;;;;;;;3.30;2.90;;;12.00;99.90;;;;;;5090813;28;21308;-88
2022/06/01 01:23:05;;;;;;;8.10;6.03;;;11.60;99.90;;;;;;5090419;28;20630;-88
2022/06/01 01:25:38;;;;;;;3.00;2.80;;;11.60;99.90;;;;;;5087867;28;20664;-88
2022/06/01 01:28:06;;;;;;;3.30;3.07;;;12.00;99.90;;;;;;5093472;28;20620;-87
2022/06/01 01:31:04;;;;;;;3.33;3.03;;;11.60;99.90;;;;;;5091194;28;21220;-87
2022/06/01 01:33:32;;;;;;;3.53;2.70;;;11.90;99.90;;;;;;5076937;28;20632;-87
2022/06/01 01:36:02;;;;;;;3.10;2.90;;;12.00;99.90;;;;;;5089473;28;20631;-87
2022/06/01 01:38:36;;;;;;;3.47;3.17;;;12.00;99.90;;;;;;5089887;28;20616;-87
2022/06/01 01:41:10;;;;;;;3.07;2.87;;;11.60;99.90;;;;;;5094099;28;20667;-88
2022/06/01 01:43:43;;;;;;;3.17;2.97;;;12.00;99.90;;;;;;5093743;28;20631;-87
2022/06/01 01:46:10;;;;;;;3.07;2.77;;;11.90;99.90;;;;;;5093248;28;20670;-88
2022/06/01 01:48:38;;;;;;;3.20;2.80;;;11.90;99.90;;;;;;5092908;28;20638;-87
2022/06/01 01:51:05;;;;;;;3.63;3.27;;;11.70;99.90;;;;;;5089423;28;21327;-87
2022/06/01 01:53:33;;;;;;;3.53;3.23;;;11.60;99.90;;;;;;5086747;28;20628;-87
2022/06/01 01:56:12;;;;;;;2.77;2.57;;;11.60;99.90;;;;;;5090781;28;20622;-87
2022/06/01 01:58:56;;;;;;;2.90;2.67;;;12.00;99.90;;;;;;5090756;28;20624;-87
2022/06/01 02:01:32;;;;;;;3.00;2.80;;;11.70;99.90;;;;;;5088577;28;20650;-87
2022/06/01 02:06:03;;;;;;;2.80;2.60;;;12.20;99.90;;;;;;5094207;28;20973;-87
2022/06/01 02:06:52;;;;;;;3.57;3.27;;;11.60;99.90;;;;;;5090091;28;20685;-88
2022/06/01 02:09:19;;;;;;;4.63;4.07;;;11.70;99.90;;;;;;5091392;28;20635;-90
2022/06/01 02:14:39;;;;;;;3.70;2.93;;;11.80;99.90;;;;;;5095790;28;21173;-89
2022/06/01 02:17:08;;;;;;;4.00;2.90;;;11.50;99.90;;;;;;5103643;28;20638;-90
2022/06/01 02:19:43;;;;;;;2.53;2.40;;;11.50;99.90;;;;;;5096422;28;20666;-89
2022/06/01 02:22:11;;;;;;;2.80;2.60;;;11.30;99.90;;;;;;5097853;28;20671;-88
2022/06/01 02:24:39;;;;;;;3.13;2.93;;;11.40;99.90;;;;;;5090871;28;20622;-88
2022/06/01 02:27:11;;;;;;;3.00;2.80;;;11.60;99.90;;;;;;5098953;28;20616;-87
2022/06/01 02:29:42;;;;;;;5.23;3.27;;;11.20;99.90;;;;;;5095099;28;20743;-87
2022/06/01 02:32:11;;;;;;;2.70;2.40;;;11.50;99.90;;;;;;5086901;28;20624;-87
2022/06/01 02:34:41;;;;;;;3.60;2.90;;;11.30;99.90;;;;;;5092226;28;20628;-86
2022/06/01 02:37:09;;;;;;;3.37;3.07;;;11.00;99.90;;;;;;5095588;28;20627;-87
2022/06/01 02:39:40;;;;;;;4.50;2.20;;;11.30;99.90;;;;;;5087527;28;21264;-87
2022/06/01 02:42:29;;;;;;;3.70;3.07;;;11.50;99.90;;;;;;5091747;28;20620;-87
2022/06/01 02:44:58;;;;;;;3.07;2.80;;;11.40;99.90;;;;;;5090248;28;20691;-87
2022/06/01 02:47:27;;;;;;;3.07;2.83;;;11.00;99.90;;;;;;5092805;28;20674;-87
2022/06/01 02:49:54;;;;;;;3.43;2.70;;;10.90;99.90;;;;;;5099218;28;20646;-89
2022/06/01 02:52:21;;;;;;;3.40;3.10;;;10.80;99.90;;;;;;5097746;28;20627;-89
2022/06/01 02:54:48;;;;;;;5.67;3.23;;;10.80;99.90;;;;;;5101265;28;20631;-90
2022/06/01 02:57:16;;;;;;;5.83;2.50;;;10.90;99.90;;;;;;5097176;28;20667;-89
2022/06/01 02:59:43;;;;;;;3.07;2.87;;;10.70;99.90;;;;;;5090223;28;20659;-88
2022/06/01 03:02:12;;;;;;;3.60;3.33;;;10.80;99.90;;;;;;5097572;28;21229;-88
2022/06/01 03:04:41;;;;;;;4.13;3.73;;;10.90;99.90;;;;;;5095394;28;20634;-87
2022/06/01 03:07:08;;;;;;;4.87;3.70;;;10.80;99.90;;;;;;5095585;28;20639;-87
2022/06/01 03:09:35;;;;;;;6.03;3.33;;;11.10;99.90;;;;;;5093792;28;20658;-87
2022/06/01 03:12:02;;;;;;;2.93;2.73;;;10.80;99.90;;;;;;5089379;28;20703;-88
2022/06/01 03:14:30;;;;;;;3.33;3.10;;;11.00;99.90;;;;;;5096587;28;20638;-89
2022/06/01 03:16:57;;;;;;;4.13;3.37;;;11.10;99.90;;;;;;5092248;28;21199;-87
2022/06/01 03:19:24;;;;;;;3.20;3.00;;;10.90;99.90;;;;;;5093592;28;20626;-88
2022/06/01 03:21:51;;;;;;;3.17;2.67;;;10.90;99.90;;;;;;5087147;28;20619;-87
2022/06/01 03:24:18;;;;;;;3.83;3.30;;;10.90;99.90;;;;;;5079835;28;20715;-87
2022/06/01 03:26:46;;;;;;;3.60;3.30;;;10.90;99.90;;;;;;5093344;28;20698;-87
2022/06/01 03:29:13;;;;;;;6.33;4.03;;;10.90;99.90;;;;;;5092176;28;21385;-85
2022/06/01 03:31:42;;;;;;;3.00;2.80;;;10.90;99.90;;;;;;5089066;28;20619;-86
2022/06/01 03:34:10;;;;;;;4.03;3.03;;;10.40;99.90;;;;;;5088205;28;21184;-86
2022/06/01 03:36:37;;;;;;;6.27;2.77;;;10.60;99.90;;;;;;5095342;28;20658;-87
2022/06/01 03:39:04;;;;;;;3.40;3.10;;;10.90;99.90;;;;;;5087156;28;21527;-86
2022/06/01 03:41:31;;;;;;;4.17;3.20;;;10.60;99.90;;;;;;5089371;28;21569;-87
2022/06/01 03:46:45;;;;;;;3.30;3.10;;;10.90;99.90;;;;;;5091683;28;21157;-87
2022/06/01 03:49:12;;;;;;;3.80;3.50;;;10.60;99.90;;;;;;5096387;28;20772;-86
2022/06/01 03:51:39;;;;;;;4.50;3.07;;;10.80;99.90;;;;;;5090840;28;20628;-86
2022/06/01 03:54:06;;;;;;;3.40;3.10;;;10.80;99.90;;;;;;5094534;28;20623;-86
2022/06/01 03:56:33;;;;;;;3.43;3.20;;;10.50;99.90;;;;;;5106321;28;20650;-86
2022/06/01 03:59:00;;;;;;;3.50;3.20;;;10.80;99.90;;;;;;5088876;28;20648;-87
2022/06/01 04:01:27;;;;;;;3.50;3.20;;;10.60;99.90;;;;;;5094871;28;20615;-87
2022/06/01 04:03:55;;;;;;;3.63;3.30;;;10.40;99.90;;;;;;5089280;28;20626;-86
2022/06/01 04:06:22;;;;;;;4.00;3.33;;;10.70;99.90;;;;;;5096365;28;20742;-87
2022/06/01 04:08:49;;;;;;;3.20;3.00;;;10.90;99.90;;;;;;5097433;28;20651;-86
2022/06/01 04:11:16;;;;;;;3.60;3.40;;;11.20;99.90;;;;;;5100077;28;20658;-88
2022/06/01 04:13:42;;;;;;;3.83;3.17;;;11.00;99.90;;;;;;5097105;28;21173;-85
2022/06/01 04:16:10;;;;;;;4.13;3.47;;;10.70;99.90;;;;;;5093504;28;20619;-87
2022/06/01 04:18:36;;;;;;;4.40;3.30;;;10.70;99.90;;;;;;5094149;28;21249;-87
2022/06/01 04:21:08;;;;;;;3.60;3.30;;;11.30;99.90;;;;;;5093857;28;20631;-89
2022/06/01 04:23:35;;;;;;;3.93;3.63;;;10.80;99.90;;;;;;5075908;28;20625;-88
2022/06/01 04:26:02;;;;;;;3.60;3.40;;;11.50;99.90;;;;;;5094037;28;20668;-87
2022/06/01 04:28:28;;;;;;;5.13;3.70;;;11.40;99.90;;;;;;5088159;28;20652;-87
2022/06/01 04:30:55;;;;;;;4.20;3.90;;;11.50;99.90;;;;;;5093768;28;20627;-87
2022/06/01 04:33:23;;;;;;;5.13;3.70;;;11.70;99.90;;;;;;5091102;28;20639;-87
2022/06/01 04:35:49;;;;;;;3.90;3.50;;;11.70;99.90;;;;;;5089515;28;20989;-87
2022/06/01 04:38:18;;;;;;;4.13;3.70;;;11.50;99.90;;;;;;5095706;28;20644;-88
2022/06/01 04:40:48;;;;;;;4.83;3.70;;;11.60;99.90;;;;;;5092092;28;20628;-89
2022/06/01 04:43:17;;;;;;;5.60;4.33;;;11.90;99.90;;;;;;5086330;28;20624;-88
2022/06/01 04:45:44;;;;;;;4.00;3.73;;;11.90;99.90;;;;;;5101930;28;20671;-88
2022/06/01 04:48:11;;;;;;;4.10;3.80;;;11.90;99.90;;;;;;5091698;28;20679;-88
2022/06/01 04:50:42;;;;;;;4.63;4.23;;;11.50;99.90;;;;;;5093163;28;21354;-88
2022/06/01 04:53:11;;;;;;;4.37;3.97;;;11.80;99.90;;;;;;5086675;28;21527;-89
2022/06/01 04:55:39;;;;;;;3.90;3.53;;;12.30;99.90;;;;;;5089926;28;21094;-87
2022/06/01 04:58:06;;;;;;;6.50;5.90;;;12.20;99.90;;;;;;5095475;28;20624;-87
2022/06/01 05:00:34;;;;;;;4.43;4.03;;;11.80;99.90;;;;;;5092099;28;20616;-88
2022/06/01 05:03:01;;;;;;;4.47;4.17;;;11.90;99.90;;;;;;5097259;28;21035;-87
2022/06/01 05:05:28;;;;;;;4.77;3.83;;;12.10;99.90;;;;;;5095341;28;21401;-87
2022/06/01 05:07:55;;;;;;;6.40;4.43;;;12.20;99.90;;;;;;5087937;28;21046;-87
2022/06/01 05:10:22;;;;;;;6.23;4.00;;;12.50;99.90;;;;;;5091043;28;20638;-88
2022/06/01 05:12:50;;;;;;;4.87;4.07;;;12.20;99.90;;;;;;5093170;28;20714;-88
2022/06/01 05:15:19;;;;;;;4.10;3.70;;;12.60;99.90;;;;;;5092073;28;20826;-88
2022/06/01 05:17:45;;;;;;;6.20;4.03;;;12.80;99.90;;;;;;5093558;28;20635;-87
2022/06/01 05:20:13;;;;;;;3.90;3.60;;;12.90;99.90;;;;;;5087482;28;20632;-87
2022/06/01 05:22:41;;;;;;;8.97;3.67;;;13.10;99.90;;;;;;5093548;28;20638;-88
2022/06/01 05:25:09;;;;;;;4.20;3.87;;;13.20;99.90;;;;;;5094233;28;20663;-88
2022/06/01 05:27:38;;;;;;;4.30;4.00;;;13.20;99.90;;;;;;5108362;27;20686;-89
2022/06/01 05:30:09;;;;;;;4.10;3.70;;;13.40;99.90;;;;;;5096469;28;20643;-90
2022/06/01 05:32:36;;;;;;;5.23;3.93;;;13.40;99.90;;;;;;5099737;28;20627;-89
2022/06/01 05:35:11;;;;;;;4.93;3.40;;;13.50;99.90;;;;;;5089098;28;20652;-91
2022/06/01 05:37:39;;;;;;;3.77;3.40;;;13.50;99.90;;;;;;5087710;28;20623;-91
2022/06/01 05:40:08;;;;;;;6.57;3.80;;;13.60;99.90;;;;;;5091345;28;20612;-91
2022/06/01 05:42:35;;;;;;;3.27;3.07;;;13.70;99.90;;;;;;5088158;28;20620;-89
2022/06/01 05:45:02;;;;;;;3.80;3.50;;;13.80;99.90;;;;;;5092485;28;21040;-90
2022/06/01 05:47:30;;;;;;;3.70;3.40;;;13.90;99.90;;;;;;5092397;28;21240;-90
2022/06/01 05:49:57;;;;;;;3.90;3.50;;;14.10;99.90;;;;;;5096252;28;20620;-91
2022/06/01 05:52:23;;;;;;;4.67;3.50;;;14.20;99.90;;;;;;5096623;28;20647;-91
2022/06/01 05:54:50;;;;;;;6.63;3.40;;;14.30;99.90;;;;;;5090796;28;20658;-91
2022/06/01 05:57:17;;;;;;;3.73;3.23;;;14.30;99.90;;;;;;5093807;28;20634;-92
2022/06/01 05:59:43;;;;;;;7.43;3.57;;;14.40;99.90;;;;;;5088940;28;20651;-90
2022/06/01 06:02:11;;;;;;;4.27;3.87;;;14.50;99.90;;;;;;5092202;28;20657;-89
2022/06/01 06:04:39;;;;;;;4.10;3.80;;;14.50;99.90;;;;;;5097338;28;21096;-89
2022/06/01 06:07:06;;;;;;;5.47;4.40;;;14.60;99.90;;;;;;5099075;28;20668;-89
2022/06/01 06:09:33;;;;;;;7.10;3.57;;;14.70;99.90;;;;;;5094134;28;20630;-89
2022/06/01 06:12:00;;;;;;;3.57;3.27;;;14.80;99.90;;;;;;5090103;28;20632;-88
2022/06/01 06:14:27;;;;;;;5.20;3.10;;;14.90;99.90;;;;;;5093912;28;20995;-88
2022/06/01 06:16:54;;;;;;;4.60;3.63;;;14.90;99.90;;;;;;5086007;28;20620;-87
2022/06/01 06:19:21;;;;;;;3.77;3.40;;;15.00;99.90;;;;;;5098734;28;20795;-88
2022/06/01 06:21:49;;;;;;;4.70;3.53;;;15.20;99.90;;;;;;5098447;28;20650;-89
2022/06/01 06:24:18;;;;;;;3.57;3.27;;;15.30;99.90;;;;;;5085697;28;21278;-88
2022/06/01 06:26:45;;;;;;;3.83;2.93;;;15.40;99.90;;;;;;5090692;28;20667;-89
2022/06/01 06:29:14;;;;;;;3.37;3.00;;;15.50;99.90;;;;;;5091808;28;21354;-89
2022/06/01 06:31:44;;;;;;;5.10;3.30;;;15.70;99.90;;;;;;5093577;28;21228;-89
2022/06/01 06:34:11;;;;;;;3.20;3.00;;;15.80;99.90;;;;;;5097404;28;21134;-89
2022/06/01 06:36:38;;;;;;;3.93;3.20;;;15.90;99.90;;;;;;5089166;28;20620;-89
2022/06/01 06:39:06;;;;;;;3.53;3.23;;;16.00;99.90;;;;;;5091028;28;20702;-88
2022/06/01 06:41:33;;;;;;;4.73;3.30;;;16.10;99.90;;;;;;5095265;28;20620;-89
2022/06/01 06:44:00;;;;;;;5.03;3.47;;;16.20;99.90;;;;;;5093086;28;20630;-88
2022/06/01 06:46:27;;;;;;;3.73;3.10;;;16.30;99.90;;;;;;5090995;28;21071;-88
2022/06/01 06:48:54;;;;;;;4.00;2.87;;;16.40;99.90;;;;;;5086264;28;20638;-89
2022/06/01 06:51:22;;;;;;;3.40;3.20;;;16.40;99.90;;;;;;5096341;28;20638;-88
2022/06/01 06:53:49;;;;;;;2.73;2.53;;;16.50;99.90;;;;;;5090319;28;20619;-88
2022/06/01 06:56:19;;;;;;;4.57;2.90;;;16.70;99.90;;;;;;5093082;28;20650;-88
2022/06/01 06:58:46;;;;;;;2.93;2.73;;;16.70;99.90;;;;;;5095608;28;20624;-88
2022/06/01 07:01:13;;;;;;;5.13;3.10;;;16.90;99.90;;;;;;5097291;28;20634;-87
2022/06/01 07:03:40;;;;;;;8.40;2.60;;;17.00;99.90;;;;;;5095811;28;20635;-88
2022/06/01 07:06:11;;;;;;;6.37;2.80;;;17.20;99.90;;;;;;5090877;28;20654;-88
2022/06/01 07:08:40;;;;;;;7.30;4.47;;;17.30;99.90;;;;;;5094299;28;20668;-88
2022/06/01 07:11:07;;;;;;;7.23;3.30;;;17.30;99.90;;;;;;5100278;28;20620;-88
2022/06/01 07:13:35;;;;;;;4.63;3.70;;;17.40;99.90;;;;;;5091789;28;20620;-88
2022/06/01 07:16:05;;;;;;;3.87;2.80;;;17.50;99.90;;;;;;5098984;28;21057;-88
2022/06/01 07:18:32;;;;;;;2.70;2.40;;;17.50;99.90;;;;;;5096420;28;20706;-88
2022/06/01 07:20:59;;;;;;;3.23;2.93;;;17.60;99.90;;;;;;5091831;28;20928;-88
2022/06/01 07:23:26;;;;;;;4.07;2.97;;;17.80;99.90;;;;;;5098499;28;20624;-88
2022/06/01 07:25:53;;;;;;;3.53;3.10;;;17.90;99.90;;;;;;5092447;28;20655;-88
2022/06/01 07:28:21;;;;;;;6.20;2.90;;;17.90;99.90;;;;;;5090962;28;21007;-88
2022/06/01 07:30:50;;;;;;;3.10;2.80;;;18.00;99.90;;;;;;5095066;28;20638;-88
2022/06/01 07:33:17;;;;;;;5.33;3.03;;;18.10;99.90;;;;;;5095072;28;20639;-89
2022/06/01 07:35:44;;;;;;;3.03;2.73;;;18.30;99.90;;;;;;5095075;28;20654;-88
2022/06/01 07:43:40;;;;;;;11.30;2.57;;;18.40;99.90;;;;;;5053314;28;21495;-88
2022/06/01 07:46:09;;;;;;;3.80;2.57;;;18.60;99.90;;;;;;5090175;28;20674;-88
2022/06/01 07:48:35;;;;;;;2.73;2.53;;;18.70;99.90;;;;;;5098931;28;20642;-88
2022/06/01 07:51:03;;;;;;;5.20;2.30;;;18.70;99.90;;;;;;5091826;28;20643;-88
2022/06/01 07:53:33;;;;;;;2.40;2.20;;;18.80;99.90;;;;;;5099837;28;20618;-88
2022/06/01 07:56:01;;;;;;;1.90;1.80;;;19.00;99.90;;;;;;5095139;28;21280;-87
2022/06/01 07:58:29;;;;;;;4.73;2.13;;;19.20;99.90;;;;;;5094679;28;20624;-89
2022/06/01 08:00:55;;;;;;;2.97;1.93;;;19.20;99.90;;;;;;5093693;28;20965;-89
2022/06/01 08:03:24;;;;;;;1.90;1.80;;;19.40;99.90;;;;;;5087567;28;20647;-88
2022/06/01 08:05:51;;;;;;;3.47;2.00;;;19.50;99.90;;;;;;5095735;28;20647;-87
2022/06/01 08:08:18;;;;;;;2.30;1.80;;;19.60;99.90;;;;;;5099224;28;20673;-87
2022/06/01 08:10:45;;;;;;;2.33;2.10;;;19.70;99.40;;;;;;5097708;28;20647;-87
2022/06/01 08:13:13;;;;;;;1.77;1.67;;;19.80;99.70;;;;;;5093486;28;20624;-90
2022/06/01 08:15:43;;;;;;;4.20;1.90;;;19.90;99.20;;;;;;5097797;28;20647;-87
2022/06/01 08:18:12;;;;;;;2.03;1.57;;;20.00;97.60;;;;;;5094015;28;20623;-87
2022/06/01 08:20:40;;;;;;;7.00;2.00;;;20.20;95.90;;;;;;5093875;28;20730;-87
2022/06/01 08:23:08;;;;;;;3.10;1.80;;;20.40;94.50;;;;;;5088311;28;20667;-87
2022/06/01 08:25:35;;;;;;;2.33;1.43;;;20.40;92.40;;;;;;5099954;28;20647;-88
2022/06/01 08:28:03;;;;;;;2.63;1.20;;;20.50;90.00;;;;;;5095225;28;20679;-87
2022/06/01 08:30:31;;;;;;;2.30;1.20;;;20.70;81.70;;;;;;5091491;28;20627;-88
2022/06/01 08:32:59;;;;;;;1.00;1.00;;;20.70;74.30;;;;;;5093108;28;20632;-88
2022/06/01 08:35:29;;;;;;;1.87;1.27;;;20.90;76.20;;;;;;5096437;28;20647;-88
2022/06/01 08:37:58;;;;;;;2.87;1.30;;;20.90;74.90;;;;;;5090829;28;20620;-87
2022/06/01 08:40:29;;;;;;;1.70;1.50;;;21.00;75.90;;;;;;5097688;28;20642;-88
2022/06/01 08:43:00;;;;;;;2.10;1.13;;;21.10;78.90;;;;;;5091687;28;20620;-87
2022/06/01 08:45:28;;;;;;;2.77;1.53;;;21.30;77.60;;;;;;5097731;28;20671;-87
2022/06/01 08:47:56;;;;;;;1.40;1.30;;;21.40;74.90;;;;;;5097666;28;20665;-87
2022/06/01 08:50:30;;;;;;;1.87;1.00;;;21.50;70.20;;;;;;5098658;28;20693;-87
2022/06/01 08:53:02;;;;;;;1.50;1.40;;;21.50;67.00;;;;;;5095710;28;20621;-87
2022/06/01 08:55:36;;;;;;;1.80;1.30;;;21.50;67.40;;;;;;5090880;28;20662;-87
2022/06/01 08:58:07;;;;;;;1.87;1.20;;;21.50;67.30;;;;;;5099138;28;20616;-86
2022/06/01 09:00:39;;;;;;;3.40;1.57;;;21.50;67.00;;;;;;5093790;28;20628;-87
2022/06/01 09:03:13;;;;;;;7.77;1.53;;;21.60;68.20;;;;;;5096677;28;20643;-89
2022/06/01 09:05:44;;;;;;;1.57;1.47;;;21.70;67.70;;;;;;5085012;28;21279;-87
2022/06/01 09:08:25;;;;;;;1.60;1.07;;;21.80;67.60;;;;;;5089722;28;20666;-87
2022/06/01 09:11:01;;;;;;;2.30;1.47;;;21.90;67.20;;;;;;5086384;28;20615;-88
2022/06/01 09:13:35;;;;;;;2.20;1.53;;;22.00;67.10;;;;;;5088984;28;20628;-88
2022/06/01 09:16:06;;;;;;;1.30;1.20;;;22.10;65.80;;;;;;5086530;28;21321;-87
2022/06/01 09:18:38;;;;;;;3.43;1.43;;;22.20;65.00;;;;;;5082535;28;20960;-88
2022/06/01 09:23:53;;;;;;;1.57;1.20;;;22.20;62.70;;;;;;5090422;28;20567;-88
2022/06/01 09:26:28;;;;;;;2.57;1.23;;;22.30;61.50;;;;;;5092353;28;20647;-88
2022/06/01 09:28:59;;;;;;;2.20;1.27;;;22.40;58.70;;;;;;5097390;28;20638;-88
2022/06/01 09:31:33;;;;;;;1.50;1.30;;;22.50;58.60;;;;;;5090248;28;20624;-88
2022/06/01 09:34:15;;;;;;;3.77;1.83;;;22.60;58.80;;;;;;5091885;28;20615;-88
2022/06/01 09:36:53;;;;;;;3.60;1.53;;;22.70;59.50;;;;;;5092191;28;20631;-89
2022/06/01 09:39:22;;;;;;;1.83;1.73;;;22.80;60.70;;;;;;5088276;28;20623;-88
2022/06/01 09:41:49;;;;;;;2.30;1.67;;;22.80;64.90;;;;;;5089500;28;20631;-87
2022/06/01 09:44:18;;;;;;;3.07;2.00;;;22.90;65.70;;;;;;5095538;28;21397;-87
2022/06/01 09:46:53;;;;;;;1.40;1.30;;;23.00;65.70;;;;;;5088287;28;20723;-87
2022/06/01 09:49:24;;;;;;;2.00;1.40;;;23.20;65.40;;;;;;5093209;28;20627;-88
2022/06/01 09:51:55;;;;;;;4.60;1.63;;;23.20;63.50;;;;;;5099257;28;20740;-87
2022/06/01 09:54:29;;;;;;;2.37;1.47;;;23.20;62.80;;;;;;5095986;28;20630;-86
2022/06/01 09:56:56;;;;;;;1.63;1.40;;;23.20;62.50;;;;;;5091354;28;20638;-87
2022/06/01 10:08:09;;;;;;;4.50;1.53;;;23.70;60.90;;;;;;5088957;28;20766;-87
2022/06/01 10:10:38;;;;;;;4.10;1.57;;;23.60;59.40;;;;;;5089608;28;20640;-88
2022/06/01 10:13:07;;;;;;;2.23;1.23;;;23.70;60.10;;;;;;5089117;28;20624;-87
2022/06/01 10:15:39;;;;;;;1.77;1.67;;;23.60;58.30;;;;;;5096381;28;20664;-87
2022/06/01 10:18:11;;;;;;;1.80;1.70;;;23.60;56.90;;;;;;5091356;28;20616;-87
2022/06/01 10:20:45;;;;;;;1.93;1.73;;;23.80;59.30;;;;;;5096579;28;20609;-87
2022/06/01 10:23:18;;;;;;;3.30;1.60;;;23.80;59.40;;;;;;5098025;28;20628;-87
2022/06/01 10:25:52;;;;;;;1.40;1.30;;;24.00;59.50;;;;;;5094582;28;20671;-87
2022/06/01 10:28:23;;;;;;;4.23;1.80;;;24.00;59.60;;;;;;5091543;28;20671;-87
2022/06/01 10:30:52;;;;;;;2.40;1.40;;;24.10;59.40;;;;;;5093907;28;20680;-87
2022/06/01 10:33:24;;;;;;;1.97;1.30;;;24.30;56.20;;;;;;5094605;28;20628;-87
2022/06/01 10:35:56;;;;;;;1.37;1.07;;;24.40;54.20;;;;;;5102318;28;20695;-87
2022/06/01 10:38:26;;;;;;;1.57;1.03;;;24.30;51.80;;;;;;5091259;28;20643;-86
2022/06/01 10:41:01;;;;;;;1.20;1.13;;;24.20;50.90;;;;;;5099935;28;20627;-87
2022/06/01 10:43:37;;;;;;;0.90;0.90;;;24.20;51.30;;;;;;5090839;28;20631;-87
2022/06/01 10:46:11;;;;;;;1.00;0.87;;;24.10;51.10;;;;;;5093633;28;20693;-87
2022/06/01 10:48:46;;;;;;;2.60;1.00;;;24.20;50.10;;;;;;5100429;28;21233;-88
2022/06/01 10:51:17;;;;;;;1.90;1.20;;;24.30;48.50;;;;;;5092687;28;20733;-87
2022/06/01 10:53:52;;;;;;;4.93;1.13;;;24.40;48.40;;;;;;5099843;28;20619;-86
2022/06/01 10:56:23;;;;;;;1.17;0.93;;;24.50;48.00;;;;;;5090178;28;20659;-88
2022/06/01 10:58:53;;;;;;;1.57;1.47;;;24.60;47.60;;;;;;5091693;28;20639;-87
2022/06/01 11:01:33;;;;;;;2.53;1.03;;;24.80;47.30;;;;;;5099988;28;20622;-87
2022/06/01 11:04:45;;;;;;;1.30;1.10;;;24.90;47.50;;;;;;5090922;28;20631;-87
2022/06/01 11:07:35;;;;;;;2.40;1.00;;;25.10;46.70;;;;;;5095422;28;21055;-88
2022/06/01 11:10:11;;;;;;;2.40;1.27;;;25.30;46.60;;;;;;5087965;28;20710;-88
2022/06/01 11:12:49;;;;;;;1.20;1.10;;;25.10;45.40;;;;;;5095014;28;20989;-87
2022/06/01 11:15:27;;;;;;;1.40;1.20;;;25.20;46.00;;;;;;5105082;28;20655;-87
2022/06/01 11:18:01;;;;;;;1.33;1.23;;;25.30;45.60;;;;;;5087093;28;21016;-87
2022/06/01 11:21:03;;;;;;;1.27;0.80;;;25.50;45.90;;;;;;5092003;28;20632;-87
2022/06/01 11:23:44;;;;;;;1.20;1.10;;;25.70;45.00;;;;;;5096447;28;20618;-87
2022/06/01 11:26:19;;;;;;;1.57;1.30;;;25.60;45.00;;;;;;5099713;28;20658;-87
2022/06/01 11:29:11;;;;;;;3.77;1.20;;;25.70;45.50;;;;;;5094168;28;20659;-86
2022/06/01 11:31:41;;;;;;;1.57;1.03;;;26.00;45.60;;;;;;5091087;28;20634;-88
2022/06/01 11:34:15;;;;;;;1.27;1.00;;;26.10;43.60;;;;;;5097785;28;21248;-88
2022/06/01 11:36:51;;;;;;;1.13;0.90;;;26.30;43.20;;;;;;5091727;28;20715;-88
2022/06/01 11:39:30;;;;;;;2.03;0.90;;;26.50;44.00;;;;;;5092449;28;20626;-87
2022/06/01 11:42:04;;;;;;;1.40;1.30;;;26.70;43.50;;;;;;5092722;28;20627;-88
2022/06/01 11:44:36;;;;;;;2.20;1.43;;;26.80;42.70;;;;;;5095365;28;20762;-88
2022/06/01 11:47:08;;;;;;;0.90;0.90;;;26.90;42.20;;;;;;5096965;28;20680;-87
2022/06/01 11:49:38;;;;;;;1.90;1.50;;;27.10;42.40;;;;;;5098224;28;20659;-87
2022/06/01 11:52:25;;;;;;;1.80;1.13;;;27.20;42.60;;;;;;5095374;28;21086;-87
2022/06/01 11:54:57;;;;;;;0.97;0.97;;;27.40;42.70;;;;;;5095229;28;20666;-88
2022/06/01 11:57:26;;;;;;;2.70;0.93;;;27.30;40.40;;;;;;5094893;28;21238;-88
2022/06/01 12:00:06;;;;;;;2.80;1.10;;;27.30;40.80;;;;;;5100576;28;20979;-89
2022/06/01 12:02:44;;;;;;;1.90;1.13;;;27.50;39.50;;;;;;5098056;28;20650;-88
2022/06/01 12:05:14;;;;;;;3.40;0.90;;;27.40;39.70;;;;;;5089291;28;20655;-87
2022/06/01 12:07:46;;;;;;;2.30;1.53;;;27.20;40.00;;;;;;5087423;28;20655;-87
2022/06/01 12:10:29;;;;;;;1.73;1.10;;;27.10;40.10;;;;;;5087895;28;20638;-87
2022/06/01 12:13:06;;;;;;;1.40;1.30;;;27.00;40.30;;;;;;5091952;28;20633;-88
2022/06/01 12:15:43;;;;;;;1.60;1.03;;;26.80;40.20;;;;;;5096937;28;20648;-89
2022/06/01 12:18:29;;;;;;;2.60;1.40;;;26.60;39.80;;;;;;5098252;28;20615;-88
2022/06/01 12:21:18;;;;;;;2.10;1.50;;;26.40;40.10;;;;;;5098045;28;20706;-86
2022/06/01 12:30:10;;;;;;;1.10;1.00;;;27.20;39.40;;;;;;5095174;28;20634;-87
2022/06/01 12:33:09;;;;;;;1.60;1.20;;;27.60;38.80;;;;;;5092681;28;20631;-87
2022/06/01 12:35:49;;;;;;;2.50;1.27;;;27.90;38.30;;;;;;5096041;28;21611;-87
2022/06/01 12:38:28;;;;;;;2.40;1.40;;;27.80;38.80;;;;;;5088525;28;20589;-86
2022/06/01 12:41:00;;;;;;;1.80;1.33;;;27.90;38.50;;;;;;5090324;28;20655;-86
2022/06/01 12:43:27;;;;;;;1.40;1.20;;;28.00;38.40;;;;;;5088379;28;20624;-87
2022/06/01 12:45:55;;;;;;;1.43;1.13;;;28.30;37.80;;;;;;5091067;28;20631;-87
2022/06/01 12:48:24;;;;;;;1.30;1.20;;;28.30;37.80;;;;;;5100432;28;20647;-87
2022/06/01 12:50:54;;;;;;;1.37;1.27;;;28.30;38.00;;;;;;5090682;28;20627;-87
2022/06/01 12:53:24;;;;;;;2.27;1.67;;;28.10;37.30;;;;;;5084565;28;20624;-87
2022/06/01 12:56:06;;;;;;;3.00;1.30;;;27.80;38.00;;;;;;5091624;28;20615;-87
2022/06/01 12:58:35;;;;;;;2.10;1.70;;;27.70;38.40;;;;;;5083285;28;20664;-88
2022/06/01 13:01:02;;;;;;;2.50;1.20;;;27.50;39.00;;;;;;5095996;28;20601;-88
2022/06/01 13:03:32;;;;;;;1.73;1.20;;;27.30;39.00;;;;;;5092618;28;20612;-89
2022/06/01 13:06:03;;;;;;;2.60;1.30;;;26.90;39.30;;;;;;5099226;28;20619;-89
2022/06/01 13:08:33;;;;;;;1.53;1.33;;;26.70;39.60;;;;;;5083349;28;20691;-88
2022/06/01 13:11:22;;;;;;;1.10;1.00;;;26.50;40.50;;;;;;5096693;28;21157;-90
2022/06/01 13:13:50;;;;;;;1.30;1.20;;;26.40;40.80;;;;;;5091861;28;20663;-88
2022/06/01 13:16:17;;;;;;;2.00;1.30;;;26.20;41.90;;;;;;5086234;28;20636;-88
2022/06/01 13:18:47;;;;;;;1.53;0.73;;;26.40;41.90;;;;;;5094531;28;20652;-88
2022/06/01 13:21:21;;;;;;;1.13;1.03;;;26.80;41.60;;;;;;5096601;28;20726;-88
2022/06/01 13:23:54;;;;;;;2.00;1.10;;;27.10;40.80;;;;;;5095201;28;20715;-88
2022/06/01 13:26:34;;;;;;;1.33;1.23;;;27.10;41.00;;;;;;5095171;28;20673;-89
2022/06/01 13:29:10;;;;;;;1.43;1.20;;;27.00;41.00;;;;;;5091521;28;20679;-88
2022/06/01 13:31:39;;;;;;;1.77;1.20;;;26.70;41.00;;;;;;5096612;28;20688;-88
2022/06/01 13:34:09;;;;;;;3.73;1.40;;;26.50;41.70;;;;;;5097967;28;20632;-88